Locke Mills, Pennsylvania
Current Conditions -  °F | °C
As of 11:15 PM on Thursday 27 Nov 2014 (Local Time) from KUNV Reporting Station
Broken Clouds Broken Clouds  
Wind Chill: 20°   Ceiling: 2900
Heat Index: 29°   Visibility: 10mi
Dew Point: 22°   Wind: 12mph
Humidity: 74%   Direction: 280°W
Pressure: 30.11"   Gusts: NA
Location:  40.7567°N, 77.488°W
Report Text: KUNV 280415Z AUTO 28010KT 10SM SCT024 BKN029 BKN034 M01/M06 A3011 RMK AO2 T10151056
Loading
Personal Weather Stations






























Interactive Weather Map New forecast layout! Learn more

10-Day Weather Forecast

Advertisements
Track Severe Weather on mobile